createdAt,value
2022-11-02T00:00:14.477Z,79.04
2022-11-02T00:01:25.651Z,78.92
2022-11-02T00:01:57.424Z,78.95
2022-11-02T00:02:29.440Z,79.00
2022-11-02T00:03:01.867Z,79.00
2022-11-02T00:03:33.891Z,78.96
2022-11-02T00:04:05.633Z,78.97
2022-11-02T00:04:37.476Z,78.99
2022-11-02T00:05:14.122Z,78.97
2022-11-02T00:05:46.050Z,78.99
2022-11-02T00:06:17.921Z,79.04
2022-11-02T00:06:49.803Z,78.99
2022-11-02T00:07:21.680Z,79.08
2022-11-02T00:07:55.109Z,78.99
2022-11-02T00:08:26.891Z,78.92
2022-11-02T00:08:58.604Z,78.95
2022-11-02T00:09:30.278Z,78.96
2022-11-02T00:10:02.250Z,78.96
2022-11-02T00:10:34.041Z,78.86
2022-11-02T00:11:06.126Z,78.95
2022-11-02T00:11:37.934Z,78.97
2022-11-02T00:12:09.748Z,78.98
2022-11-02T00:12:41.536Z,78.95
2022-11-02T00:13:13.287Z,79.04
2022-11-02T00:13:45.088Z,78.90
2022-11-02T00:14:16.864Z,78.97
2022-11-02T00:14:48.486Z,78.94
2022-11-02T00:15:20.574Z,78.92
2022-11-02T00:15:52.395Z,79.00
2022-11-02T00:16:25.065Z,79.03
2022-11-02T00:16:56.842Z,78.93
2022-11-02T00:17:29.541Z,79.02
2022-11-02T00:18:12.189Z,78.93
2022-11-02T00:18:46.319Z,78.90
2022-11-02T00:19:18.452Z,78.94
2022-11-02T00:19:50.295Z,78.99
2022-11-02T00:20:22.476Z,78.97
2022-11-02T00:20:55.342Z,78.98
2022-11-02T00:21:28.020Z,78.85
2022-11-02T00:22:01.446Z,78.99
2022-11-02T00:22:34.011Z,78.85
2022-11-02T00:23:10.213Z,78.84
2022-11-02T00:23:42.416Z,78.94
2022-11-02T00:24:14.541Z,78.99
2022-11-02T00:24:46.260Z,78.90
2022-11-02T00:25:22.174Z,78.83
2022-11-02T00:25:55.675Z,78.95
2022-11-02T00:26:28.691Z,78.91
2022-11-02T00:27:01.062Z,79.01
2022-11-02T00:27:34.886Z,78.87
2022-11-02T00:28:07.690Z,78.88
2022-11-02T00:28:39.544Z,78.86
2022-11-02T00:29:11.292Z,78.93
2022-11-02T00:29:43.123Z,78.76
2022-11-02T00:30:15.302Z,79.00
2022-11-02T00:30:47.252Z,79.05
2022-11-02T00:31:19.123Z,78.98
2022-11-02T00:31:51.100Z,78.85
2022-11-02T00:32:22.918Z,78.90
2022-11-02T00:32:55.154Z,78.93
2022-11-02T00:33:26.905Z,78.97
2022-11-02T00:33:58.713Z,78.97
2022-11-02T00:34:30.464Z,79.01
2022-11-02T00:35:02.297Z,79.02
2022-11-02T00:35:35.029Z,79.03
2022-11-02T00:36:07.279Z,78.97
2022-11-02T00:36:39.470Z,78.97
2022-11-02T00:37:12.412Z,79.03
2022-11-02T00:37:44.088Z,79.03
2022-11-02T00:38:15.845Z,79.07
2022-11-02T00:38:47.556Z,79.13
2022-11-02T00:39:19.460Z,79.13
2022-11-02T00:39:51.191Z,79.14
2022-11-02T00:40:22.902Z,78.98
2022-11-02T00:40:54.731Z,79.04
2022-11-02T00:41:26.560Z,79.11
2022-11-02T00:41:58.198Z,79.12
2022-11-02T00:42:29.873Z,79.15
2022-11-02T00:43:01.765Z,79.27
2022-11-02T00:43:33.510Z,79.03
2022-11-02T00:44:05.335Z,79.13
2022-11-02T00:44:36.995Z,79.15
2022-11-02T00:45:09.146Z,79.11
2022-11-02T00:45:41.594Z,79.27
2022-11-02T00:46:14.013Z,79.17
2022-11-02T00:46:45.671Z,79.17
2022-11-02T00:47:17.364Z,79.18
2022-11-02T00:47:49.914Z,79.06
2022-11-02T00:48:21.776Z,79.24
2022-11-02T00:48:53.386Z,79.23
2022-11-02T00:49:25.057Z,79.23
2022-11-02T00:49:56.859Z,79.16
2022-11-02T00:50:28.799Z,79.31
2022-11-02T00:51:00.604Z,79.25
2022-11-02T00:51:32.310Z,79.28
2022-11-02T00:52:04.575Z,79.24
2022-11-02T00:52:39.515Z,79.22
2022-11-02T00:53:11.365Z,79.31
2022-11-02T00:53:43.163Z,79.27
2022-11-02T00:54:15.179Z,79.17
2022-11-02T00:54:46.907Z,79.24
2022-11-02T00:55:18.866Z,79.26
2022-11-02T00:55:50.904Z,79.33
2022-11-02T00:56:22.746Z,79.19
2022-11-02T00:56:54.824Z,79.32
2022-11-02T00:57:26.700Z,79.34
2022-11-02T00:57:58.509Z,79.35
2022-11-02T00:58:30.272Z,79.31
2022-11-02T00:59:02.063Z,79.25
2022-11-02T00:59:33.858Z,79.32
2022-11-02T01:00:08.361Z,79.42
2022-11-02T01:00:40.046Z,79.41
2022-11-02T01:01:11.800Z,79.27
2022-11-02T01:01:47.280Z,79.27
2022-11-02T01:02:19.167Z,79.37
2022-11-02T01:02:51.207Z,79.40
2022-11-02T01:03:22.937Z,79.44
2022-11-02T01:03:56.691Z,79.43
2022-11-02T01:04:28.600Z,79.44
2022-11-02T01:05:00.290Z,79.54
2022-11-02T01:05:32.009Z,79.44
2022-11-02T01:06:11.680Z,79.53
2022-11-02T01:06:44.331Z,79.60
2022-11-02T01:07:15.973Z,79.60
2022-11-02T01:07:47.712Z,79.48
2022-11-02T01:08:19.489Z,79.57
2022-11-02T01:08:51.336Z,79.62
2022-11-02T01:09:23.270Z,79.63
2022-11-02T01:09:55.443Z,79.60
2022-11-02T01:10:27.226Z,79.56
2022-11-02T01:11:10.203Z,79.60
2022-11-02T01:11:42.837Z,79.55
2022-11-02T01:12:14.626Z,79.70
2022-11-02T01:12:46.487Z,79.65
2022-11-02T01:13:18.331Z,79.67
2022-11-02T01:13:51.722Z,79.65
2022-11-02T01:14:23.730Z,79.67
2022-11-02T01:14:55.615Z,79.74
2022-11-02T01:15:27.712Z,79.69
2022-11-02T01:16:03.708Z,79.71
2022-11-02T01:16:37.989Z,79.70
2022-11-02T01:17:09.700Z,79.88
2022-11-02T01:17:41.508Z,79.76
2022-11-02T01:18:13.296Z,79.81
2022-11-02T01:18:45.093Z,79.78
2022-11-02T01:19:16.936Z,79.83
2022-11-02T01:19:50.605Z,79.84
2022-11-02T01:20:22.691Z,79.83
2022-11-02T01:20:59.059Z,79.95
2022-11-02T01:21:30.746Z,79.94
2022-11-02T01:22:02.469Z,79.94
2022-11-02T01:22:34.176Z,79.87
2022-11-02T01:23:05.875Z,80.05
2022-11-02T01:23:37.950Z,79.86
2022-11-02T01:24:09.847Z,79.94
2022-11-02T01:24:41.594Z,79.99
2022-11-02T01:25:13.511Z,79.82
2022-11-02T01:25:46.356Z,80.03
2022-11-02T01:26:18.839Z,79.97
2022-11-02T01:26:51.753Z,80.10
2022-11-02T01:27:23.828Z,80.01
2022-11-02T01:27:55.515Z,80.02
2022-11-02T01:28:27.268Z,80.05
2022-11-02T01:28:59.215Z,80.16
2022-11-02T01:29:30.896Z,80.10
2022-11-02T01:30:04.526Z,80.11
2022-11-02T01:30:38.150Z,80.15
2022-11-02T01:31:11.238Z,80.13
2022-11-02T01:31:43.091Z,80.05
2022-11-02T01:32:14.896Z,80.06
2022-11-02T01:32:46.662Z,80.12
2022-11-02T01:33:18.472Z,80.27
2022-11-02T01:33:50.277Z,80.20
2022-11-02T01:34:21.904Z,80.12
2022-11-02T01:34:53.645Z,80.19
2022-11-02T01:35:25.430Z,80.20
2022-11-02T01:35:57.330Z,80.29
2022-11-02T01:36:29.174Z,80.14
2022-11-02T01:37:01.034Z,80.13
2022-11-02T01:37:32.725Z,80.23
2022-11-02T01:38:04.708Z,80.25
2022-11-02T01:38:36.597Z,80.32
2022-11-02T01:39:09.280Z,80.20
2022-11-02T01:39:40.988Z,80.26
2022-11-02T01:40:12.711Z,80.18
2022-11-02T01:40:44.519Z,80.24
2022-11-02T01:41:17.342Z,80.30
2022-11-02T01:41:52.900Z,80.15
2022-11-02T01:42:27.705Z,80.24
2022-11-02T01:42:59.498Z,80.25
2022-11-02T01:43:34.228Z,80.25
2022-11-02T01:44:26.261Z,80.42
2022-11-02T01:44:58.051Z,80.24
2022-11-02T01:45:29.844Z,80.34
2022-11-02T01:46:07.632Z,80.33
2022-11-02T01:46:45.998Z,80.35
2022-11-02T01:47:21.253Z,80.31
2022-11-02T01:47:52.999Z,80.29
2022-11-02T01:48:45.667Z,80.38
2022-11-02T01:49:19.896Z,80.41
2022-11-02T01:49:58.819Z,80.24
2022-11-02T01:50:30.745Z,80.50
2022-11-02T01:51:08.836Z,80.38
2022-11-02T01:52:06.850Z,80.42
2022-11-02T01:52:39.467Z,80.39
2022-11-02T01:53:11.714Z,80.38
2022-11-02T01:53:46.600Z,80.48
2022-11-02T01:54:31.307Z,80.42
2022-11-02T01:55:29.492Z,80.38
2022-11-02T01:56:02.176Z,80.34
2022-11-02T01:56:37.178Z,80.34
2022-11-02T01:57:12.010Z,80.43
2022-11-02T01:57:48.848Z,80.47
2022-11-02T01:58:20.860Z,80.42
2022-11-02T01:58:57.787Z,80.61
2022-11-02T01:59:35.142Z,80.44
2022-11-02T02:00:11.914Z,80.54
2022-11-02T02:00:43.871Z,80.59
2022-11-02T02:01:15.679Z,80.55
2022-11-02T02:01:49.118Z,80.50
2022-11-02T02:02:25.009Z,80.57
2022-11-02T02:03:05.999Z,80.57
2022-11-02T02:03:39.687Z,80.58
2022-11-02T02:04:12.671Z,80.62
2022-11-02T02:04:48.243Z,80.51
2022-11-02T02:05:22.667Z,80.66
2022-11-02T02:06:02.381Z,80.67
2022-11-02T02:06:34.220Z,80.64
2022-11-02T02:07:06.188Z,80.74
2022-11-02T02:07:39.688Z,80.72
2022-11-02T02:08:15.204Z,80.59
2022-11-02T02:08:49.630Z,80.65
2022-11-02T02:09:22.814Z,80.68
2022-11-02T02:09:55.517Z,80.72
2022-11-02T02:10:27.239Z,80.65
2022-11-02T02:10:59.317Z,80.74
2022-11-02T02:11:39.222Z,80.73
2022-11-02T02:12:13.474Z,80.79
2022-11-02T02:12:45.657Z,80.69
2022-11-02T02:13:18.639Z,80.72
2022-11-02T02:13:50.853Z,80.70
2022-11-02T02:14:22.699Z,80.72
2022-11-02T02:14:54.693Z,80.82
2022-11-02T02:15:54.117Z,80.77
2022-11-02T02:16:50.110Z,80.75
2022-11-02T02:17:36.752Z,80.71
2022-11-02T02:18:23.393Z,80.79
2022-11-02T02:18:58.638Z,80.89
2022-11-02T02:20:03.910Z,80.84
2022-11-02T02:20:59.440Z,80.77
2022-11-02T02:21:56.717Z,80.90
2022-11-02T02:22:43.657Z,80.88
2022-11-02T02:23:43.761Z,80.90
2022-11-02T02:24:34.532Z,80.85
2022-11-02T02:25:33.991Z,80.93
2022-11-02T02:26:14.923Z,81.00
2022-11-02T02:26:46.541Z,81.00
2022-11-02T02:27:27.249Z,80.99
2022-11-02T02:28:06.702Z,80.94
2022-11-02T02:28:42.930Z,81.04
2022-11-02T02:29:23.715Z,81.00
2022-11-02T02:30:09.768Z,80.93
2022-11-02T02:31:20.301Z,81.06
2022-11-02T02:31:56.654Z,81.02
2022-11-02T02:32:40.186Z,81.15
2022-11-02T02:33:18.012Z,81.09
2022-11-02T02:34:19.378Z,81.19
2022-11-02T02:34:58.985Z,81.11
2022-11-02T02:35:45.980Z,81.06
2022-11-02T02:37:03.449Z,81.19
2022-11-02T02:37:49.409Z,81.40
2022-11-02T02:38:33.936Z,81.16
2022-11-02T02:39:05.919Z,81.26
2022-11-02T02:39:49.038Z,81.26
2022-11-02T02:40:34.296Z,81.49
2022-11-02T02:41:14.294Z,81.25
2022-11-02T02:41:56.083Z,81.31
2022-11-02T02:42:39.991Z,81.29
2022-11-02T02:43:24.979Z,81.42
2022-11-02T02:44:00.269Z,81.40
2022-11-02T02:44:37.229Z,81.38
2022-11-02T02:45:32.795Z,81.51
2022-11-02T02:46:19.899Z,81.44
2022-11-02T02:46:58.423Z,81.61
2022-11-02T02:47:33.114Z,81.53
2022-11-02T02:48:25.223Z,81.55
2022-11-02T02:48:58.946Z,81.50
2022-11-02T02:50:05.583Z,81.60
2022-11-02T02:50:45.649Z,81.57
2022-11-02T02:51:26.477Z,81.68
2022-11-02T02:51:59.909Z,81.58
2022-11-02T02:52:34.055Z,81.53
2022-11-02T02:53:07.388Z,81.59
2022-11-02T02:53:47.342Z,81.70
2022-11-02T02:54:24.197Z,81.81
2022-11-02T02:54:59.539Z,81.70
2022-11-02T02:55:36.679Z,81.68
2022-11-02T02:56:10.863Z,81.72
2022-11-02T02:56:47.873Z,81.66
2022-11-02T02:57:23.311Z,81.71
2022-11-02T02:57:58.042Z,81.81
2022-11-02T02:58:36.480Z,81.76
2022-11-02T02:59:16.061Z,81.74
2022-11-02T02:59:49.142Z,81.59
2022-11-02T03:00:21.078Z,81.65
2022-11-02T03:00:54.573Z,81.81
2022-11-02T03:01:28.061Z,81.81
2022-11-02T03:02:00.016Z,81.62
2022-11-02T03:02:35.823Z,81.75
2022-11-02T03:03:09.050Z,81.66
2022-11-02T03:03:42.902Z,81.88
2022-11-02T03:04:15.285Z,81.83
2022-11-02T03:04:47.462Z,81.86
2022-11-02T03:05:24.103Z,81.81
2022-11-02T03:06:05.731Z,81.71
2022-11-02T03:06:37.474Z,81.69
2022-11-02T03:07:13.728Z,81.79
2022-11-02T03:07:45.594Z,81.81
2022-11-02T03:08:17.182Z,81.86
2022-11-02T03:09:15.599Z,81.89
2022-11-02T03:09:54.080Z,81.75
2022-11-02T03:10:53.441Z,81.74
2022-11-02T03:11:26.017Z,81.91
2022-11-02T03:12:05.509Z,81.93
2022-11-02T03:12:55.556Z,81.97
2022-11-02T03:13:51.712Z,81.78
2022-11-02T03:14:32.633Z,81.72
2022-11-02T03:15:10.762Z,81.93
2022-11-02T03:15:45.220Z,81.99
2022-11-02T03:16:43.511Z,82.00
2022-11-02T03:17:18.653Z,82.03
2022-11-02T03:18:24.501Z,81.88
2022-11-02T03:19:08.821Z,81.85
2022-11-02T03:19:59.184Z,82.01
2022-11-02T03:21:08.764Z,82.02
2022-11-02T03:21:43.323Z,81.92
2022-11-02T03:22:22.095Z,82.03
2022-11-02T03:23:03.811Z,81.86
2022-11-02T03:23:41.506Z,82.05
2022-11-02T03:24:16.721Z,82.08
2022-11-02T03:24:50.959Z,81.99
2022-11-02T03:25:37.851Z,82.07
2022-11-02T03:26:44.871Z,81.94
2022-11-02T03:27:28.282Z,82.08
2022-11-02T03:28:10.625Z,82.05
2022-11-02T03:28:55.832Z,82.17
2022-11-02T03:29:45.405Z,82.07
2022-11-02T03:30:23.977Z,82.19
2022-11-02T03:31:25.287Z,82.04
2022-11-02T03:32:07.206Z,82.20
2022-11-02T03:33:13.980Z,82.11
2022-11-02T03:34:02.661Z,82.08
2022-11-02T03:34:39.145Z,82.14
2022-11-02T03:35:24.510Z,82.19
2022-11-02T03:36:01.194Z,82.15
2022-11-02T03:36:40.098Z,82.17
2022-11-02T03:37:38.744Z,82.30
2022-11-02T03:38:17.491Z,82.22
2022-11-02T03:38:58.168Z,82.26
2022-11-02T03:39:34.270Z,82.25
2022-11-02T03:40:12.053Z,82.20
2022-11-02T03:40:49.889Z,82.38
2022-11-02T03:41:24.108Z,82.37
2022-11-02T03:42:00.479Z,82.22
2022-11-02T03:42:34.709Z,82.31
2022-11-02T03:43:07.334Z,82.36
2022-11-02T03:43:40.772Z,82.29
2022-11-02T03:44:22.824Z,82.36
2022-11-02T03:45:01.778Z,82.31
2022-11-02T03:45:39.567Z,82.40
2022-11-02T03:46:12.284Z,82.32
2022-11-02T03:46:45.249Z,82.35
2022-11-02T03:47:20.573Z,82.42
2022-11-02T03:47:58.210Z,82.45
2022-11-02T03:48:35.199Z,82.39
2022-11-02T03:49:12.975Z,82.45
2022-11-02T03:49:48.180Z,82.36
2022-11-02T03:50:22.613Z,82.33
2022-11-02T03:50:57.800Z,82.43
2022-11-02T03:51:31.422Z,82.65
2022-11-02T03:52:06.334Z,82.58
2022-11-02T03:52:41.378Z,82.47
2022-11-02T03:53:19.880Z,82.35
2022-11-02T03:53:57.934Z,82.48
2022-11-02T03:54:42.908Z,82.40
2022-11-02T03:55:20.187Z,82.47
2022-11-02T03:55:58.032Z,82.55
2022-11-02T03:56:35.606Z,82.46
2022-11-02T03:57:12.268Z,82.52
2022-11-02T03:57:49.239Z,82.45
2022-11-02T03:58:21.107Z,82.44
2022-11-02T03:58:53.203Z,82.61
2022-11-02T03:59:25.104Z,82.40
2022-11-02T04:00:12.235Z,82.45
2022-11-02T04:00:49.545Z,82.59
2022-11-02T04:01:21.758Z,82.56
2022-11-02T04:01:53.856Z,82.65
2022-11-02T04:02:25.811Z,82.63
2022-11-02T04:03:00.305Z,82.61
2022-11-02T04:03:33.348Z,82.54
2022-11-02T04:04:05.467Z,82.63
2022-11-02T04:04:48.381Z,82.52
2022-11-02T04:05:20.679Z,82.58
2022-11-02T04:05:52.490Z,82.64
2022-11-02T04:06:25.158Z,82.66
2022-11-02T04:06:56.973Z,82.67
2022-11-02T04:07:58.452Z,82.59
2022-11-02T04:08:37.181Z,82.74
2022-11-02T04:09:10.377Z,82.65
2022-11-02T04:09:42.221Z,82.69
2022-11-02T04:10:13.987Z,82.62
2022-11-02T04:11:05.039Z,82.72
2022-11-02T04:11:55.598Z,82.70
2022-11-02T04:12:45.514Z,82.63
2022-11-02T04:13:37.539Z,82.63
2022-11-02T04:14:28.074Z,82.64
2022-11-02T04:15:00.804Z,82.76
2022-11-02T04:15:32.618Z,82.72
2022-11-02T04:16:04.579Z,82.86
2022-11-02T04:16:36.655Z,82.84
2022-11-02T04:18:24.218Z,82.82
2022-11-02T04:19:14.525Z,82.88
2022-11-02T04:19:49.676Z,82.72
2022-11-02T04:20:21.830Z,82.74
2022-11-02T04:20:53.574Z,82.86
2022-11-02T04:21:25.322Z,82.84
2022-11-02T04:22:15.575Z,82.98
2022-11-02T04:23:06.372Z,82.93
2022-11-02T04:23:56.662Z,82.93
2022-11-02T04:24:46.986Z,82.91
2022-11-02T04:25:19.439Z,83.05
2022-11-02T04:25:54.673Z,83.08
2022-11-02T04:26:27.345Z,83.08
2022-11-02T04:26:59.188Z,82.97
2022-11-02T04:27:33.240Z,83.12
2022-11-02T04:28:09.155Z,83.06
2022-11-02T04:28:40.981Z,83.06
2022-11-02T04:29:12.950Z,83.02
2022-11-02T04:29:44.733Z,83.13
2022-11-02T04:30:19.349Z,83.17
2022-11-02T04:30:51.248Z,83.06
2022-11-02T04:31:23.436Z,83.11
2022-11-02T04:31:55.256Z,83.13
2022-11-02T04:32:45.683Z,83.12
2022-11-02T04:33:32.708Z,83.05
2022-11-02T04:34:04.435Z,83.09
2022-11-02T04:34:36.116Z,83.19
2022-11-02T04:35:08.759Z,83.35
2022-11-02T04:35:40.603Z,83.19
2022-11-02T04:36:12.441Z,83.31
2022-11-02T04:36:44.184Z,83.26
2022-11-02T04:37:45.538Z,83.22
2022-11-02T04:38:35.794Z,83.22
2022-11-02T04:39:07.508Z,83.31
2022-11-02T04:39:39.268Z,83.33
2022-11-02T04:40:11.630Z,83.33
2022-11-02T04:40:43.854Z,83.47
2022-11-02T04:41:36.468Z,83.41
2022-11-02T04:42:08.172Z,83.32
2022-11-02T04:42:39.808Z,83.40
2022-11-02T04:43:11.667Z,83.45
2022-11-02T04:43:43.985Z,83.46
2022-11-02T04:44:16.564Z,83.34
2022-11-02T04:44:48.218Z,83.51
2022-11-02T04:45:20.123Z,83.30
2022-11-02T04:45:51.908Z,83.48
2022-11-02T04:46:26.299Z,83.36
2022-11-02T04:46:58.055Z,83.38
2022-11-02T04:47:29.942Z,83.43
2022-11-02T04:48:04.936Z,83.42
2022-11-02T04:48:37.011Z,83.54
2022-11-02T04:49:09.774Z,83.43
2022-11-02T04:49:41.536Z,83.47
2022-11-02T04:50:13.383Z,83.56
2022-11-02T04:50:44.972Z,83.42
2022-11-02T04:51:17.725Z,83.55
2022-11-02T04:51:50.045Z,83.59
2022-11-02T04:52:22.079Z,83.57
2022-11-02T04:53:01.057Z,83.61
2022-11-02T04:53:33.093Z,83.75
2022-11-02T04:54:04.880Z,83.57
2022-11-02T04:54:36.537Z,83.54
2022-11-02T04:55:08.668Z,83.68
2022-11-02T04:55:40.588Z,83.78
2022-11-02T04:56:12.347Z,83.63
2022-11-02T04:56:44.358Z,83.76
2022-11-02T04:57:16.029Z,83.65
2022-11-02T04:57:47.797Z,83.70
2022-11-02T04:58:19.520Z,83.68
2022-11-02T04:58:53.185Z,83.77
2022-11-02T04:59:24.850Z,83.68
2022-11-02T04:59:56.728Z,83.79
2022-11-02T05:00:28.475Z,83.75
2022-11-02T05:01:08.628Z,83.98
2022-11-02T05:01:40.485Z,83.87
2022-11-02T05:02:12.534Z,83.86
2022-11-02T05:02:47.319Z,83.87
2022-11-02T05:03:19.089Z,83.88
2022-11-02T05:03:52.302Z,83.99
2022-11-02T05:04:24.044Z,83.87
2022-11-02T05:04:55.859Z,83.91
2022-11-02T05:05:27.586Z,83.90
2022-11-02T05:05:59.378Z,83.90
2022-11-02T05:06:31.148Z,83.99
2022-11-02T05:07:05.966Z,83.99
2022-11-02T05:07:37.746Z,83.99
2022-11-02T05:08:09.960Z,83.98
2022-11-02T05:08:41.783Z,83.99
2022-11-02T05:09:13.510Z,83.98
2022-11-02T05:09:45.383Z,84.04
2022-11-02T05:10:17.358Z,84.08
2022-11-02T05:10:49.217Z,83.99
2022-11-02T05:11:21.139Z,83.96
2022-11-02T05:11:53.225Z,84.08
2022-11-02T05:12:29.049Z,83.98
2022-11-02T05:13:01.245Z,83.95
2022-11-02T05:13:33.066Z,83.89
2022-11-02T05:14:04.973Z,84.04
2022-11-02T05:14:36.869Z,84.17
2022-11-02T05:15:09.224Z,84.05
2022-11-02T05:15:41.082Z,84.07
2022-11-02T05:16:15.313Z,83.93
2022-11-02T05:16:47.147Z,83.99
2022-11-02T05:17:18.914Z,83.91
2022-11-02T05:17:50.791Z,84.03
2022-11-02T05:18:22.964Z,84.12
2022-11-02T05:18:54.809Z,84.06
2022-11-02T05:19:26.543Z,84.06
2022-11-02T05:19:58.259Z,84.00
2022-11-02T05:20:30.004Z,84.10
2022-11-02T05:21:02.180Z,84.09
2022-11-02T05:21:33.858Z,84.11
2022-11-02T05:22:05.574Z,84.16
2022-11-02T05:22:41.919Z,84.07
2022-11-02T05:23:13.698Z,84.05
2022-11-02T05:23:45.973Z,84.11
2022-11-02T05:24:17.762Z,84.18
2022-11-02T05:24:49.634Z,84.08
2022-11-02T05:25:21.456Z,84.18
2022-11-02T05:26:01.064Z,84.18
2022-11-02T05:26:32.989Z,84.18
2022-11-02T05:27:04.933Z,84.11
2022-11-02T05:27:37.739Z,84.20
2022-11-02T05:28:09.423Z,84.08
2022-11-02T05:28:41.167Z,84.13
2022-11-02T05:29:12.955Z,84.26
2022-11-02T05:29:44.788Z,84.24
2022-11-02T05:30:16.654Z,84.24
2022-11-02T05:30:48.785Z,84.20
2022-11-02T05:31:20.578Z,84.24
2022-11-02T05:31:52.856Z,84.24
2022-11-02T05:32:24.728Z,84.19
2022-11-02T05:32:57.182Z,84.19
2022-11-02T05:33:30.819Z,84.24
2022-11-02T05:34:02.754Z,84.22
2022-11-02T05:34:34.993Z,84.30
2022-11-02T05:35:07.333Z,84.28
2022-11-02T05:35:39.136Z,84.21
2022-11-02T05:36:10.949Z,84.30
2022-11-02T05:36:42.894Z,84.32
2022-11-02T05:37:14.758Z,84.39
2022-11-02T05:37:46.504Z,84.47
2022-11-02T05:38:18.442Z,84.41
2022-11-02T05:38:54.522Z,84.47
2022-11-02T05:39:26.179Z,84.52
2022-11-02T05:39:58.186Z,84.36
2022-11-02T05:40:29.903Z,84.45
2022-11-02T05:41:01.725Z,84.45
2022-11-02T05:41:33.476Z,84.42
2022-11-02T05:42:05.329Z,84.45
2022-11-02T05:42:37.062Z,84.53
2022-11-02T05:43:09.937Z,84.52
2022-11-02T05:43:41.750Z,84.63
2022-11-02T05:44:13.595Z,84.57
2022-11-02T05:44:45.468Z,84.59
2022-11-02T05:45:20.596Z,84.70
2022-11-02T05:45:58.905Z,84.59
2022-11-02T05:46:30.564Z,84.62
2022-11-02T05:47:02.822Z,84.60
2022-11-02T05:47:34.478Z,84.63
2022-11-02T05:48:06.285Z,84.66
2022-11-02T05:48:38.190Z,84.65
2022-11-02T05:49:09.950Z,84.67
2022-11-02T05:49:41.804Z,84.67
2022-11-02T05:50:13.544Z,84.72
2022-11-02T05:50:45.572Z,84.71
2022-11-02T05:51:17.355Z,84.73
2022-11-02T05:51:49.289Z,84.77
2022-11-02T05:52:21.050Z,84.77
2022-11-02T05:52:53.252Z,84.83
2022-11-02T05:53:26.363Z,84.84
2022-11-02T05:53:58.323Z,84.91
2022-11-02T05:54:30.010Z,84.90
2022-11-02T05:55:01.749Z,84.91
2022-11-02T05:55:35.005Z,84.92
2022-11-02T05:56:09.461Z,84.93
2022-11-02T05:56:41.283Z,84.96
2022-11-02T05:57:13.418Z,84.95
2022-11-02T05:57:54.027Z,85.01
2022-11-02T05:58:27.561Z,85.01
2022-11-02T05:58:59.413Z,84.99
2022-11-02T05:59:31.237Z,84.99
2022-11-02T06:00:07.019Z,85.01
2022-11-02T06:00:39.498Z,85.08
2022-11-02T06:01:11.419Z,85.10
2022-11-02T06:01:43.317Z,85.03
2022-11-02T06:02:15.110Z,85.08
2022-11-02T06:02:48.018Z,85.10
2022-11-02T06:03:20.221Z,85.07
2022-11-02T06:03:53.806Z,85.11
2022-11-02T06:04:26.288Z,85.14
2022-11-02T06:04:58.004Z,85.08
2022-11-02T06:05:29.981Z,85.15
2022-11-02T06:06:04.935Z,85.18
2022-11-02T06:06:36.929Z,85.18
2022-11-02T06:07:08.661Z,85.14
2022-11-02T06:07:40.501Z,85.18
2022-11-02T06:08:12.283Z,85.13
2022-11-02T06:08:43.960Z,85.17
2022-11-02T06:09:16.124Z,85.18
2022-11-02T06:09:48.072Z,85.10
2022-11-02T06:10:19.968Z,85.17
2022-11-02T06:10:51.785Z,85.25
2022-11-02T06:11:23.572Z,85.18
2022-11-02T06:11:55.864Z,85.17
2022-11-02T06:12:27.664Z,85.19
2022-11-02T06:13:01.576Z,85.18
2022-11-02T06:13:34.034Z,85.16
2022-11-02T06:14:06.001Z,85.12
2022-11-02T06:14:37.786Z,85.15
2022-11-02T06:15:10.442Z,85.18
2022-11-02T06:15:42.173Z,85.14
2022-11-02T06:16:18.713Z,85.25
2022-11-02T06:16:54.388Z,85.11
2022-11-02T06:17:26.368Z,85.20
2022-11-02T06:17:58.262Z,85.16
2022-11-02T06:18:31.165Z,85.18
2022-11-02T06:19:03.138Z,85.18
2022-11-02T06:19:35.077Z,85.17
2022-11-02T06:20:08.345Z,85.17
2022-11-02T06:20:40.207Z,85.25
2022-11-02T06:21:12.132Z,85.20
2022-11-02T06:21:47.379Z,85.19
2022-11-02T06:22:20.476Z,85.03
2022-11-02T06:22:52.297Z,85.06
2022-11-02T06:23:28.113Z,85.13
2022-11-02T06:24:00.343Z,85.11
2022-11-02T06:24:32.295Z,85.11
2022-11-02T06:25:04.426Z,85.13
2022-11-02T06:25:36.343Z,85.14
2022-11-02T06:26:10.920Z,85.19
2022-11-02T06:26:42.829Z,85.07
2022-11-02T06:27:14.639Z,85.14
2022-11-02T06:27:52.495Z,85.07
2022-11-02T06:28:24.712Z,85.22
2022-11-02T06:28:56.825Z,85.14
2022-11-02T06:29:28.982Z,85.15
2022-11-02T06:30:01.182Z,85.17
2022-11-02T06:30:32.972Z,85.09
2022-11-02T06:31:05.010Z,85.20
2022-11-02T06:31:37.022Z,85.11
2022-11-02T06:32:08.711Z,85.11
2022-11-02T06:32:46.428Z,85.18
2022-11-02T06:33:19.266Z,85.10
2022-11-02T06:33:51.238Z,85.24
2022-11-02T06:34:23.134Z,85.11
2022-11-02T06:34:55.102Z,85.19
2022-11-02T06:35:26.819Z,85.19
2022-11-02T06:35:58.882Z,85.12
2022-11-02T06:36:30.729Z,85.12
2022-11-02T06:37:02.642Z,85.06
2022-11-02T06:37:34.786Z,85.19
2022-11-02T06:38:06.728Z,85.15
2022-11-02T06:38:38.551Z,85.09
2022-11-02T06:39:11.092Z,85.17
2022-11-02T06:39:43.366Z,84.97
2022-11-02T06:40:15.400Z,85.05
2022-11-02T06:41:03.652Z,85.16
2022-11-02T06:41:35.474Z,85.07
2022-11-02T06:42:07.344Z,85.07
2022-11-02T06:42:45.055Z,85.05
2022-11-02T06:43:23.030Z,85.05
2022-11-02T06:43:55.673Z,85.05
2022-11-02T06:44:27.451Z,85.03
2022-11-02T06:45:02.150Z,85.10
2022-11-02T06:45:34.271Z,85.02
2022-11-02T06:46:06.242Z,85.02
2022-11-02T06:46:37.952Z,85.03
2022-11-02T06:47:09.941Z,85.00
2022-11-02T06:47:41.791Z,85.03
2022-11-02T06:48:13.817Z,84.95
2022-11-02T06:48:46.873Z,84.89
2022-11-02T06:49:18.821Z,84.95
2022-11-02T06:49:51.536Z,84.96
2022-11-02T06:50:24.466Z,84.96
2022-11-02T06:50:58.882Z,85.03
2022-11-02T06:51:30.605Z,84.91
2022-11-02T06:52:02.605Z,84.96
2022-11-02T06:52:34.784Z,84.97
2022-11-02T06:53:07.144Z,84.97
2022-11-02T06:53:39.107Z,84.83
2022-11-02T06:54:11.275Z,84.83
2022-11-02T06:54:43.126Z,84.88
2022-11-02T06:55:15.534Z,84.88
2022-11-02T06:55:52.713Z,84.82
2022-11-02T06:56:24.470Z,84.89
2022-11-02T06:56:56.299Z,84.79
2022-11-02T06:57:28.073Z,84.80
2022-11-02T06:58:00.027Z,84.82
2022-11-02T06:58:31.957Z,84.77
2022-11-02T06:59:03.807Z,84.77
2022-11-02T06:59:35.689Z,84.80
2022-11-02T07:00:15.547Z,84.80
2022-11-02T07:00:50.498Z,84.75
2022-11-02T07:01:22.590Z,84.70
2022-11-02T07:01:54.614Z,84.74
2022-11-02T07:02:26.568Z,84.70
2022-11-02T07:03:06.919Z,84.69
2022-11-02T07:03:39.080Z,84.77
2022-11-02T07:04:10.879Z,84.64
2022-11-02T07:04:42.868Z,84.59
2022-11-02T07:05:14.987Z,84.62
2022-11-02T07:05:53.989Z,84.61
2022-11-02T07:06:27.034Z,84.63
2022-11-02T07:06:58.789Z,84.67
2022-11-02T07:07:30.591Z,84.62
2022-11-02T07:08:03.197Z,84.64
2022-11-02T07:08:35.270Z,84.55
2022-11-02T07:09:07.018Z,84.52
2022-11-02T07:09:38.915Z,84.59
2022-11-02T07:10:10.686Z,84.59
2022-11-02T07:10:42.440Z,84.75
2022-11-02T07:11:18.345Z,84.52
2022-11-02T07:11:50.161Z,84.56
2022-11-02T07:12:23.338Z,84.56
2022-11-02T07:12:56.957Z,84.51
2022-11-02T07:13:29.174Z,84.42
2022-11-02T07:14:00.924Z,84.43
2022-11-02T07:14:32.694Z,84.49
2022-11-02T07:15:05.355Z,84.41
2022-11-02T07:15:37.214Z,84.38
2022-11-02T07:16:09.062Z,84.37
2022-11-02T07:16:40.925Z,84.35
2022-11-02T07:17:12.731Z,84.36
2022-11-02T07:17:44.397Z,84.34
2022-11-02T07:18:16.116Z,84.38
2022-11-02T07:18:47.802Z,84.28
2022-11-02T07:19:19.625Z,84.34
2022-11-02T07:19:51.638Z,84.36
2022-11-02T07:20:24.579Z,84.32
2022-11-02T07:20:58.794Z,84.28
2022-11-02T07:21:30.783Z,84.28
2022-11-02T07:22:02.684Z,84.34
2022-11-02T07:22:34.543Z,84.25
2022-11-02T07:23:06.696Z,84.23
2022-11-02T07:23:38.654Z,84.29
2022-11-02T07:24:10.654Z,84.29
2022-11-02T07:24:42.428Z,84.28
2022-11-02T07:25:14.406Z,84.30
2022-11-02T07:25:46.683Z,84.22
2022-11-02T07:26:18.555Z,84.21
2022-11-02T07:26:50.579Z,84.25
2022-11-02T07:27:22.732Z,84.19
2022-11-02T07:27:54.727Z,84.20
2022-11-02T07:28:26.532Z,84.15
2022-11-02T07:28:59.376Z,84.24
2022-11-02T07:29:31.435Z,84.20
2022-11-02T07:30:03.658Z,84.18
2022-11-02T07:30:35.833Z,84.17
2022-11-02T07:31:07.820Z,84.33
2022-11-02T07:31:39.571Z,84.13
2022-11-02T07:32:11.513Z,84.22
2022-11-02T07:32:44.653Z,84.20